Airfield :
LOGIN :

Register | Disclaimer

   EN    FR    IT 

 










Legend :    VFR   Marginal VFR   IFR   Intensive IFR   Very Intensive IFR
Visi :
Ceiling :
>= 8 km
>= 3000ft
5 to 8 km
1000 to 3000 ft
1500m to 5 km
500 to 1000 ft
800 to 1500m
200 to 500 ft
< 800m
< 200 ft
Symbols :   Thunderstorms  Fog  Heavy snow  Heavy precipitations  Wind > 20 kt
SIGMETs :     Misc.  Thunderstorms  Icing  Turbulence  Mountain Waves  Volcanic Ashes






- Airport Elevation : 65 ft
- IATA code : PIK


EGPK - Glasgow Prestwick

CURRENT METAR :
  • 190820Z 20003KT 150V260 9999 FEW026 16/10 Q1014

EXPIRED METARs :
  • 190750Z VRB03KT 9999 FEW026 15/10 Q1014
  • 190720Z 16005KT 130V190 9999 FEW028 15/10 Q1014
  • 190650Z 13005KT 9999 SCT023 14/10 Q1014
  • 190620Z 15005KT 9999 SCT023 14/10 Q1014

TAF TAF EGPK
Valid from the 19 at 06:00 until the 20 at 06:00 UTC


190457Z 1906/2006 12006KT 9999 FEW030
BECMG 1908/1911 26010KT
PROB40
TEMPO 1909/1922 7000 SHRA
BECMG 1918/1921 12005KT
PROB40
TEMPO 1922/2006 6000 -RADZ BKN014



MET'MAP, your aeronautical weather chart ! - Copyright ORBIFLY December 2007 - Disclaimer

ORBIFLY MET'MAP TEAM :

Programming & Development : Alexandra Zaïnal
Concept & original design : Baudouin d'Aumeries
Assistance for programming : Marc-Olivier Méhu
Technical & hardware support : Manuel Goepfert

Contact : metmap@orbifly.com




SOURCES & CREDITS :

   NOAA